Time;durP1;ratioP1;P1;durP2;ratioP2;P2;SDS_P1;SDS_P2;PMS_P1;PMS_P2;Temp;Humidity;BMP_temperature;BMP_pressure;BME280_temperature;BME280_humidity;BME280_pressure;Samples;Min_cycle;Max_cycle;Signal;HPM_P1;HPM_P2
2023/12/05 00:04:36;;;;;;;20.77;12.37;;;;;;;;;;10376651;28;20197;-69
2023/12/05 00:09:36;;;;;;;17.20;10.20;;;;;;;;;;10370711;28;20228;-69
2023/12/05 00:14:37;;;;;;;20.83;13.07;;;;;;;;;;10370713;28;20681;-70
2023/12/05 00:19:37;;;;;;;22.33;12.13;;;;;;;;;;10370741;28;20592;-69
2023/12/05 00:24:37;;;;;;;20.77;12.43;;;;;;;;;;10376199;28;20189;-69
2023/12/05 00:29:37;;;;;;;18.60;10.87;;;;;;;;;;10370627;28;20216;-69
2023/12/05 00:34:37;;;;;;;17.00;8.87;;;;;;;;;;10370341;28;20220;-68
2023/12/05 00:39:38;;;;;;;16.10;9.87;;;;;;;;;;10373522;28;20577;-68
2023/12/05 00:44:38;;;;;;;21.37;12.23;;;;;;;;;;10377836;28;20246;-69
2023/12/05 00:49:38;;;;;;;23.97;13.60;;;;;;;;;;10375085;28;20292;-68
2023/12/05 00:54:38;;;;;;;19.13;11.53;;;;;;;;;;10378053;28;20224;-70
2023/12/05 00:59:38;;;;;;;22.67;12.73;;;;;;;;;;10383424;28;20551;-70
2023/12/05 01:04:39;;;;;;;21.23;9.60;;;;;;;;;;10377927;28;20193;-69
2023/12/05 01:09:39;;;;;;;17.37;10.93;;;;;;;;;;10377476;28;20323;-70
2023/12/05 01:14:39;;;;;;;20.23;10.93;;;;;;;;;;10377300;28;20776;-69
2023/12/05 01:19:39;;;;;;;21.97;12.47;;;;;;;;;;10382581;28;20190;-70
2023/12/05 01:24:40;;;;;;;19.07;10.43;;;;;;;;;;10377374;28;20201;-71
2023/12/05 01:29:40;;;;;;;25.13;12.40;;;;;;;;;;10376645;28;20223;-70
2023/12/05 01:34:40;;;;;;;21.03;11.00;;;;;;;;;;10378523;28;20220;-70
2023/12/05 01:39:40;;;;;;;12.30;6.30;;;;;;;;;;10381771;28;20697;-70
2023/12/05 01:44:40;;;;;;;16.70;8.73;;;;;;;;;;10376386;28;20554;-69
2023/12/05 01:49:41;;;;;;;26.13;13.93;;;;;;;;;;10375733;28;20209;-69
2023/12/05 01:54:43;;;;;;;17.50;11.37;;;;;;;;;;10375734;28;20711;-71
2023/12/05 01:59:43;;;;;;;15.23;9.53;;;;;;;;;;10378224;28;20209;-70
2023/12/05 02:04:44;;;;;;;11.57;8.40;;;;;;;;;;10374379;28;20244;-71
2023/12/05 02:09:44;;;;;;;21.07;14.47;;;;;;;;;;10374232;28;20237;-70
2023/12/05 02:14:44;;;;;;;15.97;9.80;;;;;;;;;;10378614;28;20295;-69
2023/12/05 02:19:47;;;;;;;16.60;9.87;;;;;;;;;;10377121;28;20680;-69
2023/12/05 02:24:56;;;;;;;22.10;12.00;;;;;;;;;;10374870;28;20471;-69
2023/12/05 02:29:56;;;;;;;21.50;13.17;;;;;;;;;;10374239;28;20210;-71
2023/12/05 02:34:57;;;;;;;18.83;12.00;;;;;;;;;;10379727;28;20223;-68
2023/12/05 02:40:07;;;;;;;17.77;9.87;;;;;;;;;;10373727;28;20219;-68
2023/12/05 02:45:11;;;;;;;25.37;14.70;;;;;;;;;;10373229;28;20193;-70
2023/12/05 02:50:11;;;;;;;21.53;10.23;;;;;;;;;;10378453;28;20907;-69
2023/12/05 02:55:11;;;;;;;28.70;14.47;;;;;;;;;;10379012;28;20244;-68
2023/12/05 03:00:12;;;;;;;23.10;11.83;;;;;;;;;;10373369;28;20476;-69
2023/12/05 03:05:12;;;;;;;13.33;8.23;;;;;;;;;;10373254;28;20558;-69
2023/12/05 03:10:12;;;;;;;25.23;14.63;;;;;;;;;;10371964;28;20740;-68
2023/12/05 03:15:12;;;;;;;24.23;14.27;;;;;;;;;;10374572;28;20221;-70
2023/12/05 03:20:14;;;;;;;21.70;12.27;;;;;;;;;;10372665;28;20240;-69
2023/12/05 03:25:14;;;;;;;19.97;10.77;;;;;;;;;;10372794;28;20189;-69
2023/12/05 03:30:14;;;;;;;18.60;11.07;;;;;;;;;;10372026;28;20240;-68
2023/12/05 03:35:14;;;;;;;17.17;10.83;;;;;;;;;;10377658;28;20212;-68
2023/12/05 03:40:15;;;;;;;21.17;12.93;;;;;;;;;;10371968;28;20241;-68
2023/12/05 03:45:15;;;;;;;18.53;12.07;;;;;;;;;;10371928;28;20220;-69
2023/12/05 03:50:15;;;;;;;18.73;11.53;;;;;;;;;;10377304;28;20956;-67
2023/12/05 03:55:15;;;;;;;13.33;8.93;;;;;;;;;;10371116;28;20243;-68
2023/12/05 04:00:15;;;;;;;25.50;12.00;;;;;;;;;;10371540;28;20209;-68
2023/12/05 04:05:16;;;;;;;16.43;10.33;;;;;;;;;;10370878;28;20204;-68
2023/12/05 04:10:16;;;;;;;19.60;11.57;;;;;;;;;;10376336;28;20233;-69
2023/12/05 04:15:16;;;;;;;16.70;9.07;;;;;;;;;;10371133;28;20228;-68
2023/12/05 04:20:17;;;;;;;20.33;10.00;;;;;;;;;;10370602;28;20205;-68
2023/12/05 04:25:17;;;;;;;20.93;11.03;;;;;;;;;;10370710;28;20197;-67
2023/12/05 04:30:17;;;;;;;24.43;13.00;;;;;;;;;;10375736;28;20598;-68
2023/12/05 04:35:18;;;;;;;14.03;9.17;;;;;;;;;;10370618;28;20213;-67
2023/12/05 04:40:19;;;;;;;24.47;11.47;;;;;;;;;;10369032;28;20217;-68
2023/12/05 04:45:19;;;;;;;22.70;11.67;;;;;;;;;;10368630;28;20209;-68
2023/12/05 04:50:19;;;;;;;19.63;11.47;;;;;;;;;;10374585;28;21526;-68
2023/12/05 04:55:19;;;;;;;23.20;15.37;;;;;;;;;;10368351;28;20217;-67
2023/12/05 05:00:19;;;;;;;27.30;16.70;;;;;;;;;;10368345;28;20767;-68
2023/12/05 05:05:20;;;;;;;14.80;8.23;;;;;;;;;;10369275;28;20205;-70
2023/12/05 05:10:20;;;;;;;22.23;11.60;;;;;;;;;;10372814;28;20487;-67
2023/12/05 05:15:20;;;;;;;16.93;10.70;;;;;;;;;;10367319;28;20232;-68
2023/12/05 05:20:20;;;;;;;21.17;13.77;;;;;;;;;;10444097;22;20505;-68
2023/12/05 05:25:20;;;;;;;16.10;9.77;;;;;;;;;;10449076;28;20184;-68
2023/12/05 05:30:20;;;;;;;19.30;11.20;;;;;;;;;;10450180;28;20684;-68
2023/12/05 05:35:21;;;;;;;11.07;7.00;;;;;;;;;;10453333;28;20311;-68
2023/12/05 05:40:21;;;;;;;17.17;9.57;;;;;;;;;;10459204;28;20207;-68
2023/12/05 05:45:22;;;;;;;18.53;12.47;;;;;;;;;;10457061;28;20196;-68
2023/12/05 05:50:22;;;;;;;15.13;8.43;;;;;;;;;;10456546;28;20290;-68
2023/12/05 05:55:26;;;;;;;14.13;8.97;;;;;;;;;;10462251;28;20223;-68
2023/12/05 06:00:26;;;;;;;17.53;9.00;;;;;;;;;;10458909;28;20470;-68
2023/12/05 06:05:26;;;;;;;20.90;10.77;;;;;;;;;;10457048;28;20200;-68
2023/12/05 06:10:27;;;;;;;18.77;9.57;;;;;;;;;;10456238;28;20219;-69
2023/12/05 06:15:27;;;;;;;13.83;8.53;;;;;;;;;;10457893;28;20995;-68
2023/12/05 06:20:27;;;;;;;19.90;9.03;;;;;;;;;;10455361;28;20230;-68
2023/12/05 06:25:27;;;;;;;20.03;10.30;;;;;;;;;;10454315;28;20244;-68
2023/12/05 06:30:28;;;;;;;22.47;12.37;;;;;;;;;;10456776;28;20572;-68
2023/12/05 06:35:28;;;;;;;22.47;14.77;;;;;;;;;;10463144;28;20207;-68
2023/12/05 06:40:28;;;;;;;24.50;15.07;;;;;;;;;;10460851;28;20298;-69
2023/12/05 06:45:29;;;;;;;17.30;9.77;;;;;;;;;;10465292;28;20338;-68
2023/12/05 06:50:29;;;;;;;19.47;12.37;;;;;;;;;;10456650;28;20238;-68
2023/12/05 06:55:29;;;;;;;17.17;11.03;;;;;;;;;;10454151;28;20219;-68
2023/12/05 07:00:29;;;;;;;14.53;8.40;;;;;;;;;;10453069;28;20223;-68
2023/12/05 07:05:29;;;;;;;14.77;8.77;;;;;;;;;;10457013;28;20245;-69
2023/12/05 07:10:31;;;;;;;12.87;7.87;;;;;;;;;;10452173;28;20586;-68
2023/12/05 07:15:32;;;;;;;13.43;8.60;;;;;;;;;;10449544;28;20636;-68
2023/12/05 07:20:32;;;;;;;12.87;7.30;;;;;;;;;;10451236;28;20293;-69
2023/12/05 07:25:32;;;;;;;11.77;6.57;;;;;;;;;;10452166;28;20198;-68
2023/12/05 07:30:32;;;;;;;16.97;9.27;;;;;;;;;;10452919;28;20684;-68
2023/12/05 07:35:32;;;;;;;9.63;5.83;;;;;;;;;;10453404;28;20341;-68
2023/12/05 07:40:32;;;;;;;16.60;8.63;;;;;;;;;;10454391;28;20235;-67
2023/12/05 07:45:33;;;;;;;20.23;12.40;;;;;;;;;;10445403;28;20679;-68
2023/12/05 07:50:33;;;;;;;16.37;10.20;;;;;;;;;;10452036;28;20554;-67
2023/12/05 07:55:33;;;;;;;21.53;13.73;;;;;;;;;;10450150;28;20320;-68
2023/12/05 08:00:34;;;;;;;23.00;13.73;;;;;;;;;;10450408;28;20211;-68
2023/12/05 08:05:34;;;;;;;21.27;12.80;;;;;;;;;;10449876;28;20257;-67
2023/12/05 08:10:35;;;;;;;19.53;12.23;;;;;;;;;;10438012;28;20248;-66
2023/12/05 08:15:36;;;;;;;15.07;8.60;;;;;;;;;;10438257;28;20303;-67
2023/12/05 08:20:36;;;;;;;16.37;8.47;;;;;;;;;;10446653;28;20238;-68
2023/12/05 08:25:36;;;;;;;17.87;11.27;;;;;;;;;;10448747;28;20195;-67
2023/12/05 08:30:37;;;;;;;16.43;9.10;;;;;;;;;;10450154;28;20219;-67
2023/12/05 08:35:37;;;;;;;21.17;13.57;;;;;;;;;;10447952;28;20249;-66
2023/12/05 08:40:38;;;;;;;21.07;14.67;;;;;;;;;;10447796;28;20268;-67
2023/12/05 08:45:38;;;;;;;20.80;12.10;;;;;;;;;;10447407;28;20196;-66
2023/12/05 08:50:39;;;;;;;18.23;13.17;;;;;;;;;;10448477;28;20219;-68
2023/12/05 08:55:41;;;;;;;14.17;10.03;;;;;;;;;;10447337;28;20203;-67
2023/12/05 09:00:41;;;;;;;14.87;8.97;;;;;;;;;;10451674;28;20200;-67
2023/12/05 09:05:42;;;;;;;17.38;8.65;;;;;;;;;;10447322;28;20687;-67
2023/12/05 09:10:42;;;;;;;14.10;8.67;;;;;;;;;;10448276;28;20219;-68
2023/12/05 09:15:43;;;;;;;14.77;7.70;;;;;;;;;;10453423;28;20489;-68
2023/12/05 09:20:43;;;;;;;13.27;7.83;;;;;;;;;;10452681;28;20243;-67
2023/12/05 09:25:43;;;;;;;16.20;10.37;;;;;;;;;;10454717;28;20680;-67
2023/12/05 09:30:43;;;;;;;19.27;11.95;;;;;;;;;;10454965;28;20212;-68
2023/12/05 09:35:43;;;;;;;25.10;18.03;;;;;;;;;;10452072;28;20220;-66
2023/12/05 09:40:44;;;;;;;7.67;4.70;;;;;;;;;;10454112;28;20628;-66
2023/12/05 09:45:45;;;;;;;18.03;11.17;;;;;;;;;;10457468;28;20558;-69
2023/12/05 09:50:45;;;;;;;11.53;7.63;;;;;;;;;;10454301;28;20261;-69
2023/12/05 09:55:46;;;;;;;15.85;9.02;;;;;;;;;;10452073;28;20569;-69
2023/12/05 10:00:46;;;;;;;17.33;10.70;;;;;;;;;;10453156;28;20584;-69
2023/12/05 10:05:47;;;;;;;13.90;8.77;;;;;;;;;;10455862;28;20611;-68
2023/12/05 10:10:48;;;;;;;9.37;4.80;;;;;;;;;;10453425;28;20216;-70
2023/12/05 10:15:48;;;;;;;12.40;8.23;;;;;;;;;;10452884;28;20239;-70
2023/12/05 10:20:49;;;;;;;11.83;6.63;;;;;;;;;;10453028;28;20318;-70
2023/12/05 10:25:49;;;;;;;14.80;8.83;;;;;;;;;;10456134;28;20283;-69
2023/12/05 10:30:49;;;;;;;10.97;7.43;;;;;;;;;;10451507;28;20208;-69
2023/12/05 10:35:49;;;;;;;11.67;7.50;;;;;;;;;;10450396;28;20204;-69
2023/12/05 10:40:56;;;;;;;9.53;6.47;;;;;;;;;;10457540;28;20203;-69
2023/12/05 10:45:57;;;;;;;12.20;7.13;;;;;;;;;;10452197;28;20192;-70
2023/12/05 10:50:57;;;;;;;14.73;9.13;;;;;;;;;;10451418;28;20638;-70
2023/12/05 10:56:09;;;;;;;11.27;6.57;;;;;;;;;;10451764;28;20226;-70
2023/12/05 11:01:10;;;;;;;13.03;7.03;;;;;;;;;;10449668;28;20560;-70
2023/12/05 11:06:10;;;;;;;9.13;5.70;;;;;;;;;;10456897;28;20266;-70
2023/12/05 11:11:12;;;;;;;11.93;8.00;;;;;;;;;;10450990;28;20208;-70
2023/12/05 11:16:24;;;;;;;15.03;8.57;;;;;;;;;;10457054;28;20269;-71
2023/12/05 11:21:46;;;;;;;13.93;8.67;;;;;;;;;;10450135;28;20243;-70
2023/12/05 11:26:47;;;;;;;10.33;6.97;;;;;;;;;;10450194;28;21031;-69
2023/12/05 11:32:10;;;;;;;16.17;9.90;;;;;;;;;;10448077;28;20184;-69
2023/12/05 11:37:13;;;;;;;13.33;7.60;;;;;;;;;;10449181;28;20222;-69
2023/12/05 11:42:19;;;;;;;16.90;10.70;;;;;;;;;;10446501;28;20192;-69
2023/12/05 11:47:25;;;;;;;14.23;8.03;;;;;;;;;;10449786;28;20290;-70
2023/12/05 11:52:26;;;;;;;11.10;7.03;;;;;;;;;;10447932;28;20206;-70
2023/12/05 11:57:31;;;;;;;15.70;7.87;;;;;;;;;;10445497;28;20272;-70
2023/12/05 12:02:31;;;;;;;10.30;5.67;;;;;;;;;;10447122;28;20203;-70
2023/12/05 12:07:32;;;;;;;14.70;9.50;;;;;;;;;;10443963;28;20200;-69
2023/12/05 12:12:33;;;;;;;12.00;6.67;;;;;;;;;;10446674;28;20244;-70
2023/12/05 12:17:33;;;;;;;10.23;6.72;;;;;;;;;;10448424;28;20235;-72
2023/12/05 12:22:33;;;;;;;16.57;9.47;;;;;;;;;;10446542;28;20253;-70
2023/12/05 12:27:34;;;;;;;12.73;7.03;;;;;;;;;;10445656;28;20713;-70
2023/12/05 12:32:38;;;;;;;14.63;7.33;;;;;;;;;;10445027;28;20512;-70
2023/12/05 12:37:39;;;;;;;16.87;10.60;;;;;;;;;;10447884;28;20220;-70
2023/12/05 12:42:40;;;;;;;12.53;7.90;;;;;;;;;;10443936;28;20188;-70
2023/12/05 12:47:40;;;;;;;15.67;8.97;;;;;;;;;;10454943;28;20215;-70
2023/12/05 12:52:41;;;;;;;19.97;9.17;;;;;;;;;;10446417;28;20207;-70
2023/12/05 12:57:42;;;;;;;15.20;8.23;;;;;;;;;;10457561;28;20897;-68
2023/12/05 13:02:42;;;;;;;14.40;8.53;;;;;;;;;;10455628;28;20224;-69
2023/12/05 13:07:42;;;;;;;14.90;8.27;;;;;;;;;;10462574;28;20203;-69
2023/12/05 13:12:42;;;;;;;20.07;11.77;;;;;;;;;;10464630;28;20568;-70
2023/12/05 13:17:55;;;;;;;15.60;10.10;;;;;;;;;;10458823;28;21040;-70
2023/12/05 13:22:55;;;;;;;20.03;12.13;;;;;;;;;;10454700;28;20274;-69
2023/12/05 13:27:55;;;;;;;15.13;8.53;;;;;;;;;;10453765;28;20295;-69
2023/12/05 13:32:56;;;;;;;14.13;9.20;;;;;;;;;;10453981;28;20544;-70
2023/12/05 13:37:56;;;;;;;22.00;13.90;;;;;;;;;;10453724;28;20302;-68
2023/12/05 13:42:56;;;;;;;13.40;8.27;;;;;;;;;;10451917;28;20187;-70
2023/12/05 13:47:56;;;;;;;18.40;10.57;;;;;;;;;;10454201;28;20634;-69
2023/12/05 13:52:56;;;;;;;19.77;11.43;;;;;;;;;;10456519;28;20184;-69
2023/12/05 13:57:57;;;;;;;11.63;6.47;;;;;;;;;;10452461;28;20215;-70
2023/12/05 14:02:57;;;;;;;17.27;8.73;;;;;;;;;;10453789;28;20446;-70
2023/12/05 14:07:57;;;;;;;18.77;10.27;;;;;;;;;;10450276;28;20204;-69
2023/12/05 14:13:24;;;;;;;15.17;9.57;;;;;;;;;;10449207;28;20676;-68
2023/12/05 14:18:25;;;;;;;21.00;11.13;;;;;;;;;;10446388;28;20327;-69
2023/12/05 14:23:25;;;;;;;21.00;12.40;;;;;;;;;;10453299;28;20203;-69
2023/12/05 14:28:26;;;;;;;21.03;12.50;;;;;;;;;;10454185;28;20223;-69
2023/12/05 14:33:26;;;;;;;23.37;12.77;;;;;;;;;;10452124;28;20321;-69
2023/12/05 14:38:26;;;;;;;18.80;10.77;;;;;;;;;;10452508;28;20211;-69
2023/12/05 14:43:28;;;;;;;19.43;9.90;;;;;;;;;;10450420;28;20194;-69
2023/12/05 14:48:28;;;;;;;14.83;9.07;;;;;;;;;;10453948;28;20462;-70
2023/12/05 14:53:28;;;;;;;35.10;18.77;;;;;;;;;;10451355;28;20258;-70
2023/12/05 14:58:29;;;;;;;20.27;11.73;;;;;;;;;;10451816;28;20203;-69
2023/12/05 15:03:29;;;;;;;17.23;11.33;;;;;;;;;;10451093;28;20192;-70
2023/12/05 15:08:30;;;;;;;19.03;10.17;;;;;;;;;;10452290;28;20266;-69
2023/12/05 15:13:31;;;;;;;19.43;10.53;;;;;;;;;;10459388;28;20211;-70
2023/12/05 15:18:31;;;;;;;11.20;7.23;;;;;;;;;;10446870;28;20371;-70
2023/12/05 15:23:31;;;;;;;12.57;7.83;;;;;;;;;;10451164;28;20312;-70
2023/12/05 15:28:33;;;;;;;20.43;11.87;;;;;;;;;;10452958;28;20257;-70
2023/12/05 15:33:33;;;;;;;19.33;10.97;;;;;;;;;;10453680;28;20507;-69
2023/12/05 15:38:33;;;;;;;19.90;12.00;;;;;;;;;;10450059;28;20826;-69
2023/12/05 15:43:34;;;;;;;17.87;11.13;;;;;;;;;;10449745;28;20195;-69
2023/12/05 15:48:34;;;;;;;24.73;12.27;;;;;;;;;;10452008;28;20219;-69
2023/12/05 15:53:35;;;;;;;18.23;8.43;;;;;;;;;;10449209;28;20623;-68
2023/12/05 15:58:35;;;;;;;23.83;13.40;;;;;;;;;;10449493;28;20295;-69
2023/12/05 16:03:35;;;;;;;26.70;15.93;;;;;;;;;;10448420;28;20192;-69
2023/12/05 16:08:36;;;;;;;23.60;12.80;;;;;;;;;;10453602;28;20455;-69
2023/12/05 16:13:38;;;;;;;17.93;10.23;;;;;;;;;;10448567;28;20737;-69
2023/12/05 16:18:44;;;;;;;20.03;12.17;;;;;;;;;;10455438;28;20654;-67
2023/12/05 16:23:51;;;;;;;18.17;11.13;;;;;;;;;;10462798;28;20259;-68
2023/12/05 16:28:52;;;;;;;27.13;15.47;;;;;;;;;;10448112;28;20215;-69
2023/12/05 16:33:52;;;;;;;10.20;5.70;;;;;;;;;;10447121;28;20216;-68
2023/12/05 16:38:52;;;;;;;21.83;13.07;;;;;;;;;;10448726;28;20203;-68
2023/12/05 16:43:52;;;;;;;23.60;11.93;;;;;;;;;;10448336;28;20241;-68
2023/12/05 16:48:53;;;;;;;26.83;12.67;;;;;;;;;;10455754;28;20268;-68
2023/12/05 16:53:53;;;;;;;24.90;13.63;;;;;;;;;;10450207;28;20563;-68
2023/12/05 16:58:53;;;;;;;24.23;12.37;;;;;;;;;;10447931;28;20457;-67
2023/12/05 17:03:53;;;;;;;25.43;13.47;;;;;;;;;;10448726;28;20203;-68
2023/12/05 17:08:53;;;;;;;18.57;9.23;;;;;;;;;;10446227;28;20641;-67
2023/12/05 17:13:54;;;;;;;24.50;14.20;;;;;;;;;;10456720;28;20242;-68
2023/12/05 17:18:55;;;;;;;19.70;9.90;;;;;;;;;;10452078;28;20616;-68
2023/12/05 17:23:56;;;;;;;23.77;12.63;;;;;;;;;;10453810;28;20238;-68
2023/12/05 17:28:57;;;;;;;22.93;12.57;;;;;;;;;;10447093;28;20235;-68
2023/12/05 17:33:57;;;;;;;22.43;11.23;;;;;;;;;;10458016;28;20239;-68
2023/12/05 17:38:57;;;;;;;19.07;11.50;;;;;;;;;;10457821;28;20695;-68
2023/12/05 17:43:58;;;;;;;22.50;11.83;;;;;;;;;;10464085;28;20863;-69
2023/12/05 17:48:58;;;;;;;19.07;9.47;;;;;;;;;;10457619;28;20203;-68
2023/12/05 17:53:58;;;;;;;18.03;9.63;;;;;;;;;;10457761;28;20215;-68
2023/12/05 17:58:59;;;;;;;20.03;11.50;;;;;;;;;;10458105;28;20215;-67
2023/12/05 18:04:00;;;;;;;23.73;12.53;;;;;;;;;;10463080;28;20196;-68
2023/12/05 18:09:00;;;;;;;26.60;14.77;;;;;;;;;;10456852;28;20211;-69
2023/12/05 18:14:01;;;;;;;25.60;13.07;;;;;;;;;;10456291;28;20220;-68
2023/12/05 18:19:08;;;;;;;26.20;13.53;;;;;;;;;;10455155;28;20592;-68
2023/12/05 18:24:08;;;;;;;18.87;9.70;;;;;;;;;;10457444;28;20719;-68
2023/12/05 18:29:08;;;;;;;21.10;12.50;;;;;;;;;;10455343;28;20295;-68
2023/12/05 18:34:08;;;;;;;20.33;10.73;;;;;;;;;;10455650;28;20235;-67
2023/12/05 18:39:10;;;;;;;25.90;14.73;;;;;;;;;;10461379;28;20203;-68
2023/12/05 18:44:10;;;;;;;24.57;11.70;;;;;;;;;;10454997;28;20698;-67
2023/12/05 18:49:11;;;;;;;21.97;11.93;;;;;;;;;;10454588;28;20219;-68
2023/12/05 18:54:11;;;;;;;23.90;11.40;;;;;;;;;;10455127;28;20259;-68
2023/12/05 18:59:11;;;;;;;23.07;12.30;;;;;;;;;;10458837;28;20316;-68
2023/12/05 19:04:11;;;;;;;20.50;9.93;;;;;;;;;;10460078;28;20196;-67
2023/12/05 19:09:12;;;;;;;21.63;11.20;;;;;;;;;;10454459;28;20513;-67
2023/12/05 19:14:12;;;;;;;30.50;16.23;;;;;;;;;;10449588;28;20259;-67
2023/12/05 19:19:12;;;;;;;30.37;17.13;;;;;;;;;;10459616;28;20304;-68
2023/12/05 19:24:13;;;;;;;25.60;14.10;;;;;;;;;;10453351;28;20207;-68
2023/12/05 19:29:14;;;;;;;29.70;15.03;;;;;;;;;;10453195;28;20215;-68
2023/12/05 19:34:14;;;;;;;40.40;17.83;;;;;;;;;;10453207;28;20486;-68
2023/12/05 19:39:14;;;;;;;26.80;13.40;;;;;;;;;;10452404;28;20204;-67
2023/12/05 19:44:15;;;;;;;32.20;17.60;;;;;;;;;;10452280;28;20587;-67
2023/12/05 19:49:15;;;;;;;38.97;20.10;;;;;;;;;;10451213;28;20254;-67
2023/12/05 19:54:15;;;;;;;39.77;17.27;;;;;;;;;;10454806;28;20223;-66
2023/12/05 19:59:15;;;;;;;33.80;15.03;;;;;;;;;;10453785;28;20257;-69
2023/12/05 20:04:16;;;;;;;28.70;15.83;;;;;;;;;;10451522;28;20222;-66
2023/12/05 20:09:16;;;;;;;29.17;13.33;;;;;;;;;;10449298;28;20772;-66
2023/12/05 20:14:16;;;;;;;29.27;15.03;;;;;;;;;;10446425;28;20215;-68
2023/12/05 20:19:18;;;;;;;21.33;11.47;;;;;;;;;;10450190;28;20239;-68
2023/12/05 20:24:18;;;;;;;34.53;17.60;;;;;;;;;;10451581;28;20564;-67
2023/12/05 20:29:18;;;;;;;36.47;17.37;;;;;;;;;;10460202;28;20216;-66
2023/12/05 20:34:22;;;;;;;35.10;16.23;;;;;;;;;;10457077;28;20277;-67
2023/12/05 20:39:22;;;;;;;40.43;19.77;;;;;;;;;;10445242;28;20243;-66
2023/12/05 20:44:22;;;;;;;35.17;18.63;;;;;;;;;;10451926;28;20211;-70
2023/12/05 20:49:23;;;;;;;37.80;18.07;;;;;;;;;;10451706;28;20208;-69
2023/12/05 20:54:24;;;;;;;25.23;12.10;;;;;;;;;;10454269;28;20252;-69
2023/12/05 20:59:24;;;;;;;27.93;14.50;;;;;;;;;;10452785;28;21141;-70
2023/12/05 21:04:25;;;;;;;28.07;14.87;;;;;;;;;;10452722;28;20274;-68
2023/12/05 21:09:27;;;;;;;35.30;18.63;;;;;;;;;;10457344;28;20331;-69
2023/12/05 21:14:27;;;;;;;35.77;18.17;;;;;;;;;;10458560;28;20228;-69
2023/12/05 21:19:27;;;;;;;28.33;14.37;;;;;;;;;;10456431;28;20240;-69
2023/12/05 21:24:27;;;;;;;36.40;16.40;;;;;;;;;;10456239;28;20188;-68
2023/12/05 21:29:27;;;;;;;27.60;13.83;;;;;;;;;;10453487;28;20216;-68
2023/12/05 21:34:31;;;;;;;37.90;19.03;;;;;;;;;;10461082;28;20644;-69
2023/12/05 21:39:32;;;;;;;23.90;9.83;;;;;;;;;;10473076;22;20345;-71
2023/12/05 21:44:32;;;;;;;29.90;16.53;;;;;;;;;;10454419;28;20228;-72
2023/12/05 21:49:35;;;;;;;29.93;15.67;;;;;;;;;;10460203;28;20203;-72
2023/12/05 21:54:36;;;;;;;33.23;18.13;;;;;;;;;;10454585;28;20212;-72
2023/12/05 21:59:36;;;;;;;20.47;12.53;;;;;;;;;;10467113;28;20669;-72
2023/12/05 22:05:00;;;;;;;30.27;16.23;;;;;;;;;;10461811;28;20427;-72
2023/12/05 22:28:38;;;;;;;32.10;16.60;;;;;;;;;;10456657;28;20227;-72
2023/12/05 22:33:39;;;;;;;34.53;17.20;;;;;;;;;;10451780;28;20637;-72
2023/12/05 22:38:39;;;;;;;33.20;17.73;;;;;;;;;;10455784;28;20231;-71
2023/12/05 22:43:39;;;;;;;33.90;17.37;;;;;;;;;;10446720;28;20192;-72
2023/12/05 22:48:40;;;;;;;31.10;15.83;;;;;;;;;;10449282;28;20282;-72
2023/12/05 22:53:40;;;;;;;34.37;19.40;;;;;;;;;;10452857;28;20195;-72
2023/12/05 22:58:40;;;;;;;32.27;17.10;;;;;;;;;;10451517;28;20223;-72
2023/12/05 23:03:41;;;;;;;27.00;14.47;;;;;;;;;;10447178;28;20210;-72
2023/12/05 23:08:42;;;;;;;27.47;11.27;;;;;;;;;;10449048;28;20187;-72
2023/12/05 23:13:43;;;;;;;26.17;14.43;;;;;;;;;;10456758;28;20559;-72
2023/12/05 23:18:43;;;;;;;35.80;16.03;;;;;;;;;;10446446;28;20187;-72
2023/12/05 23:23:43;;;;;;;30.87;16.37;;;;;;;;;;10447825;28;20188;-72
2023/12/05 23:28:43;;;;;;;32.07;18.50;;;;;;;;;;10448199;28;20207;-72
2023/12/05 23:33:44;;;;;;;38.23;15.77;;;;;;;;;;10453837;28;20657;-72
2023/12/05 23:38:44;;;;;;;25.27;10.00;;;;;;;;;;10447559;28;20238;-72
2023/12/05 23:43:44;;;;;;;35.80;18.00;;;;;;;;;;10447273;28;20188;-72
2023/12/05 23:48:44;;;;;;;44.87;22.13;;;;;;;;;;10447894;28;20605;-72
2023/12/05 23:53:45;;;;;;;29.57;15.77;;;;;;;;;;10453180;28;20650;-72
2023/12/05 23:58:45;;;;;;;37.17;19.27;;;;;;;;;;10447935;28;20192;-72
